Weather at London Stansted Airport

Public forecast

Using degrees Celsius for public forecast. Weather courtesy of forecast.io.

Current aviation weather report (METAR) for London Stansted Airport

2024/02/24 09:20 (retrieved 38 minutes ago)

EGSS 240920Z AUTO 23004KT 210V270 0150 R22/0325N FG VV/// 02/01 Q0994

Aviation forecast (TAF) for London Stansted Airport

2024/02/24 09:09 Ammendment (retrieved 49 minutes ago)

TAF AMD EGSS 240902Z 2409/2512 22004KT 0300 FG BKN000 BECMG 2409/2412 9999 NSW PROB30 TEMPO 2412/2418 6000 SHRA TEMPO 2421/2424 4000 BR BECMG 2500/2503 2000 BR PROB30 2503/2509 0300 FG FZFG BKN000 BECMG 2509/2512 9999 NSW